Time;durP1;ratioP1;P1;durP2;ratioP2;P2;SDS_P1;SDS_P2;PMS_P1;PMS_P2;Temp;Humidity;BMP_temperature;BMP_pressure;BME280_temperature;BME280_humidity;BME280_pressure;Samples;Min_cycle;Max_cycle;Signal;HPM_P1;HPM_P2
2023/11/05 00:01:49;;;;;;;45.50;38.85;;;;;;;5.95;100.00;93172.00;5082006;28;20032;-65
2023/11/05 00:04:15;;;;;;;37.80;33.95;;;;;;;5.97;100.00;93167.44;5087095;28;20028;-66
2023/11/05 00:06:40;;;;;;;42.67;38.65;;;;;;;5.98;100.00;93179.50;5074531;28;20035;-65
2023/11/05 00:09:05;;;;;;;34.25;30.92;;;;;;;6.00;100.00;93174.91;5085835;28;20031;-65
2023/11/05 00:11:31;;;;;;;34.90;31.25;;;;;;;6.01;100.00;93170.53;5077483;28;20045;-66
2023/11/05 00:13:57;;;;;;;48.60;44.17;;;;;;;6.02;100.00;93164.31;5078929;28;20016;-65
2023/11/05 00:16:23;;;;;;;34.55;31.45;;;;;;;6.02;100.00;93141.63;5082996;28;20029;-66
2023/11/05 00:18:49;;;;;;;30.23;27.55;;;;;;;6.09;100.00;93133.88;5083554;28;20028;-66
2023/11/05 00:21:14;;;;;;;15.55;14.15;;;;;;;6.10;100.00;93139.94;5081722;28;20106;-65
2023/11/05 00:23:39;;;;;;;16.35;14.75;;;;;;;6.14;100.00;93125.53;5087065;28;20404;-65
2023/11/05 00:26:05;;;;;;;32.90;29.77;;;;;;;6.16;100.00;93110.47;5076502;28;20035;-66
2023/11/05 00:28:30;;;;;;;20.52;18.35;;;;;;;6.16;100.00;93116.50;5073909;28;20117;-65
2023/11/05 00:30:56;;;;;;;20.25;18.35;;;;;;;6.18;100.00;93126.78;5062105;28;20016;-65
2023/11/05 00:33:22;;;;;;;19.55;17.55;;;;;;;6.20;100.00;93129.22;5084013;28;20028;-65
2023/11/05 00:35:48;;;;;;;16.00;14.38;;;;;;;6.33;100.00;93115.56;5077041;28;20029;-66
2023/11/05 00:38:13;;;;;;;9.35;8.40;;;;;;;6.27;100.00;93141.38;5083816;28;20046;-66
2023/11/05 00:40:39;;;;;;;9.30;8.50;;;;;;;6.25;100.00;93155.63;5078819;28;20024;-66
2023/11/05 00:43:04;;;;;;;11.70;10.57;;;;;;;6.27;100.00;93151.84;5077853;28;20020;-66
2023/11/05 00:45:30;;;;;;;10.18;9.25;;;;;;;6.24;100.00;93167.06;5081345;28;20788;-66
2023/11/05 00:47:56;;;;;;;9.35;8.15;;;;;;;6.25;100.00;93160.84;5078454;28;20105;-66
2023/11/05 00:50:21;;;;;;;8.68;7.80;;;;;;;6.27;100.00;93164.91;5083291;28;20019;-66
2023/11/05 00:52:47;;;;;;;8.48;6.82;;;;;;;6.24;100.00;93165.25;5079634;28;20020;-65
2023/11/05 00:55:14;;;;;;;7.90;7.10;;;;;;;6.22;100.00;93171.66;5079634;28;20035;-66
2023/11/05 00:57:40;;;;;;;7.50;6.80;;;;;;;6.20;100.00;93179.66;5079428;28;20183;-66
2023/11/05 01:00:08;;;;;;;8.23;5.72;;;;;;;6.19;100.00;93183.28;5076939;28;20043;-66
2023/11/05 01:02:35;;;;;;;7.32;6.50;;;;;;;6.20;100.00;93177.06;5078151;28;20280;-66
2023/11/05 01:05:00;;;;;;;8.88;7.60;;;;;;;6.19;100.00;93178.06;5088468;28;20020;-66
2023/11/05 01:07:25;;;;;;;6.80;6.20;;;;;;;6.19;100.00;93191.13;5078428;28;20036;-66
2023/11/05 01:09:51;;;;;;;10.50;9.50;;;;;;;6.19;100.00;93213.81;5076643;28;20049;-67
2023/11/05 01:12:16;;;;;;;13.10;11.80;;;;;;;6.23;100.00;93189.78;5075624;28;20032;-66
2023/11/05 01:14:42;;;;;;;14.15;11.80;;;;;;;6.24;100.00;93172.31;5075202;28;20025;-66
2023/11/05 01:17:09;;;;;;;13.32;12.05;;;;;;;6.20;100.00;93197.97;5084532;28;20016;-66
2023/11/05 01:19:34;;;;;;;10.38;9.40;;;;;;;6.27;100.00;93206.72;5074270;28;20165;-66
2023/11/05 01:22:00;;;;;;;7.50;6.80;;;;;;;6.25;100.00;93205.28;5083014;28;20056;-66
2023/11/05 01:24:25;;;;;;;11.98;9.93;;;;;;;6.20;100.00;93195.34;5078696;28;20028;-66
2023/11/05 01:26:51;;;;;;;31.83;28.58;;;;;;;6.21;100.00;93194.34;5081090;28;20854;-66
2023/11/05 01:29:16;;;;;;;46.83;42.25;;;;;;;6.25;100.00;93193.00;5082056;28;20089;-66
2023/11/05 01:31:41;;;;;;;27.90;24.85;;;;;;;6.23;100.00;93192.38;5087347;28;20401;-66
2023/11/05 01:34:07;;;;;;;24.90;22.40;;;;;;;6.24;100.00;93187.97;5084325;28;20484;-66
2023/11/05 01:36:32;;;;;;;60.72;55.17;;;;;;;6.25;100.00;93176.53;5083812;28;20038;-66
2023/11/05 01:38:57;;;;;;;108.53;85.68;;;;;;;6.25;100.00;93177.34;5080753;28;20035;-66
2023/11/05 01:41:23;;;;;;;91.53;81.35;;;;;;;6.34;100.00;93174.66;5080364;28;20067;-66
2023/11/05 01:43:48;;;;;;;74.22;64.85;;;;;;;6.28;100.00;93152.66;5076701;28;20396;-66
2023/11/05 01:46:14;;;;;;;28.95;25.98;;;;;;;6.30;100.00;93128.00;5086500;28;20099;-66
2023/11/05 01:48:39;;;;;;;41.45;37.20;;;;;;;6.27;100.00;93124.91;5066856;28;20031;-66
2023/11/05 01:51:12;;;;;;;33.38;30.33;;;;;;;6.24;100.00;93102.56;5075865;28;20076;-66
2023/11/05 01:53:38;;;;;;;27.52;24.88;;;;;;;6.24;100.00;93094.72;5087549;28;20024;-66
2023/11/05 01:56:04;;;;;;;22.23;20.13;;;;;;;6.26;100.00;93082.28;5075857;28;20035;-66
2023/11/05 01:58:31;;;;;;;31.88;28.92;;;;;;;6.27;100.00;93075.25;5078118;28;20020;-66
2023/11/05 02:00:56;;;;;;;35.53;32.10;;;;;;;6.25;100.00;93075.44;5086273;28;20032;-66
2023/11/05 02:03:22;;;;;;;28.08;25.23;;;;;;;6.30;100.00;93078.34;5095900;28;20024;-66
2023/11/05 02:05:47;;;;;;;26.30;23.27;;;;;;;6.55;100.00;93053.72;5083778;28;20130;-66
2023/11/05 02:08:13;;;;;;;40.92;37.25;;;;;;;6.38;100.00;93040.81;5081118;28;20025;-66
2023/11/05 02:10:38;;;;;;;51.35;46.35;;;;;;;6.32;100.00;93064.28;5085367;28;20052;-66
2023/11/05 02:13:04;;;;;;;42.90;38.75;;;;;;;6.30;100.00;93072.28;5085222;28;20097;-66
2023/11/05 02:15:29;;;;;;;32.80;29.38;;;;;;;6.55;100.00;93096.34;5080851;28;20028;-66
2023/11/05 02:17:55;;;;;;;46.13;41.63;;;;;;;6.46;100.00;93094.81;5083941;28;20024;-66
2023/11/05 02:20:22;;;;;;;47.95;43.08;;;;;;;6.40;100.00;93092.94;5080775;28;20052;-66
2023/11/05 02:22:48;;;;;;;30.67;27.50;;;;;;;6.38;100.00;93072.19;5082484;28;20027;-66
2023/11/05 02:25:18;;;;;;;33.28;30.13;;;;;;;6.44;100.00;93073.28;5085614;28;20025;-66
2023/11/05 02:27:48;;;;;;;30.92;27.50;;;;;;;6.47;100.00;93093.03;5083692;28;20492;-65
2023/11/05 02:30:16;;;;;;;24.58;22.15;;;;;;;6.49;100.00;93104.91;5081147;28;20020;-66
2023/11/05 02:32:42;;;;;;;25.85;21.05;;;;;;;6.50;100.00;93106.53;5079976;28;20142;-66
2023/11/05 02:35:07;;;;;;;26.77;24.10;;;;;;;6.52;100.00;93107.19;5079574;28;20051;-66
2023/11/05 02:37:33;;;;;;;59.88;52.03;;;;;;;6.77;100.00;93108.69;5083760;28;20366;-66
2023/11/05 02:39:59;;;;;;;52.33;46.97;;;;;;;6.64;100.00;93098.88;5087940;28;20066;-66
2023/11/05 02:42:24;;;;;;;54.92;49.38;;;;;;;6.58;100.00;93098.59;5086046;28;20027;-66
2023/11/05 02:44:51;;;;;;;51.53;46.33;;;;;;;6.62;100.00;93088.56;5082366;28;20031;-66
2023/11/05 02:47:16;;;;;;;19.33;16.10;;;;;;;6.73;100.00;93098.59;5086265;28;20059;-65
2023/11/05 02:49:42;;;;;;;18.15;16.35;;;;;;;6.67;100.00;93111.56;5084327;28;20044;-66
2023/11/05 02:52:07;;;;;;;21.63;19.35;;;;;;;6.66;100.00;93118.63;5085506;28;20028;-66
2023/11/05 02:54:33;;;;;;;17.20;15.40;;;;;;;6.68;100.00;93115.81;5067181;28;20510;-66
2023/11/05 02:57:00;;;;;;;13.63;10.50;;;;;;;6.71;100.00;93124.13;5084006;28;20416;-66
2023/11/05 02:59:26;;;;;;;12.63;9.40;;;;;;;6.67;100.00;93122.03;5081827;28;20527;-66
2023/11/05 03:01:51;;;;;;;14.82;11.68;;;;;;;6.64;100.00;93133.69;5090162;28;20081;-65
2023/11/05 03:04:18;;;;;;;13.15;11.75;;;;;;;6.61;100.00;93130.59;5084498;28;20032;-66
2023/11/05 03:06:49;;;;;;;52.05;47.08;;;;;;;6.59;100.00;93139.44;5082427;28;20027;-66
2023/11/05 03:09:17;;;;;;;18.35;16.65;;;;;;;6.60;100.00;93155.94;5085564;28;20020;-66
2023/11/05 03:11:44;;;;;;;18.55;14.80;;;;;;;6.68;100.00;93165.50;5083661;28;20086;-66
2023/11/05 03:14:10;;;;;;;17.05;13.55;;;;;;;6.71;100.00;93175.59;5080416;28;20032;-66
2023/11/05 03:16:37;;;;;;;18.23;14.00;;;;;;;6.68;100.00;93152.41;5085107;28;20028;-66
2023/11/05 03:19:03;;;;;;;18.15;14.93;;;;;;;6.67;100.00;93145.56;5088240;28;20032;-66
2023/11/05 03:21:31;;;;;;;17.73;14.52;;;;;;;6.72;100.00;93149.25;5082906;28;20032;-66
2023/11/05 03:23:56;;;;;;;20.67;18.58;;;;;;;6.65;100.00;93150.16;5080627;28;20013;-66
2023/11/05 03:26:22;;;;;;;12.88;10.10;;;;;;;6.62;100.00;93151.31;5091024;28;20024;-66
2023/11/05 03:28:47;;;;;;;17.35;15.77;;;;;;;6.57;100.00;93141.44;5075993;28;20107;-66
2023/11/05 03:31:15;;;;;;;13.63;12.48;;;;;;;6.54;100.00;93151.41;5078492;28;20032;-65
2023/11/05 03:33:40;;;;;;;6.35;5.35;;;;;;;6.51;100.00;93136.91;5080631;28;20107;-66
2023/11/05 03:36:06;;;;;;;9.60;8.15;;;;;;;6.50;100.00;93135.28;5085480;28;20058;-66
2023/11/05 03:38:31;;;;;;;8.27;7.47;;;;;;;6.48;100.00;93150.31;5075585;28;20104;-66
2023/11/05 03:40:57;;;;;;;8.15;5.90;;;;;;;6.48;100.00;93131.25;5079933;28;20028;-66
2023/11/05 03:43:22;;;;;;;8.15;5.78;;;;;;;6.49;100.00;93140.69;5079393;28;20032;-66
2023/11/05 03:45:48;;;;;;;6.85;4.93;;;;;;;6.71;100.00;93138.97;5084725;28;20020;-66
2023/11/05 03:48:13;;;;;;;8.38;5.32;;;;;;;6.67;100.00;93151.63;5078623;28;20424;-66
2023/11/05 03:50:38;;;;;;;4.60;3.35;;;;;;;6.72;100.00;93143.22;5090832;28;20784;-66
2023/11/05 03:53:04;;;;;;;4.18;2.25;;;;;;;6.92;100.00;93135.63;5076365;28;20059;-66
2023/11/05 03:55:29;;;;;;;5.70;3.13;;;;;;;7.04;100.00;93143.84;5085842;28;20020;-66
2023/11/05 03:57:54;;;;;;;4.45;2.50;;;;;;;7.26;100.00;93141.25;5086776;28;20492;-65
2023/11/05 04:00:20;;;;;;;3.60;1.55;;;;;;;7.62;100.00;93132.56;5079316;28;20019;-66
2023/11/05 04:02:45;;;;;;;3.60;2.30;;;;;;;7.56;100.00;93142.00;5083716;28;20022;-66
2023/11/05 04:05:14;;;;;;;3.28;1.50;;;;;;;7.99;100.00;93153.47;5076057;28;20031;-66
2023/11/05 04:07:39;;;;;;;3.63;1.88;;;;;;;8.18;100.00;93162.47;5085928;28;20025;-66
2023/11/05 04:10:05;;;;;;;5.38;2.15;;;;;;;8.16;100.00;93182.84;5084389;28;20052;-66
2023/11/05 04:12:31;;;;;;;1.88;1.52;;;;;;;8.44;100.00;93169.75;5083553;28;20035;-66
2023/11/05 04:14:56;;;;;;;2.13;1.50;;;;;;;8.67;100.00;93197.56;5080770;28;20038;-66
2023/11/05 04:17:21;;;;;;;3.22;2.00;;;;;;;8.48;100.00;93216.56;5078434;28;20027;-66
2023/11/05 04:19:47;;;;;;;2.63;2.08;;;;;;;8.58;100.00;93210.03;5086621;28;20052;-66
2023/11/05 04:22:12;;;;;;;2.85;1.98;;;;;;;8.85;100.00;93227.78;5076876;28;20427;-66
2023/11/05 04:24:37;;;;;;;3.75;2.85;;;;;;;9.16;100.00;93206.31;5078199;28;20053;-66
2023/11/05 04:27:03;;;;;;;1.65;1.30;;;;;;;10.06;100.00;93230.06;5080942;28;20036;-67
2023/11/05 04:29:28;;;;;;;1.75;1.33;;;;;;;10.22;100.00;93299.91;5081280;28;20024;-67
2023/11/05 04:31:56;;;;;;;2.53;1.13;;;;;;;10.61;100.00;93361.56;5077519;28;20028;-67
2023/11/05 04:34:22;;;;;;;2.28;1.90;;;;;;;10.63;100.00;93390.28;5085146;28;20106;-66
2023/11/05 04:36:47;;;;;;;4.00;1.77;;;;;;;10.41;100.00;93411.47;5090828;28;20495;-66
2023/11/05 04:39:12;;;;;;;1.95;1.42;;;;;;;10.31;100.00;93422.31;5087414;28;20020;-66
2023/11/05 04:41:38;;;;;;;2.95;1.48;;;;;;;10.38;100.00;93430.22;5066005;28;20008;-66
2023/11/05 04:44:03;;;;;;;2.67;1.30;;;;;;;10.67;100.00;93387.06;5088408;28;20412;-66
2023/11/05 04:46:29;;;;;;;1.58;1.15;;;;;;;10.57;100.00;93399.75;5075837;28;20025;-66
2023/11/05 04:48:54;;;;;;;2.70;1.30;;;;;;;10.98;100.00;93369.88;5079000;28;20055;-66
2023/11/05 04:51:20;;;;;;;1.90;1.30;;;;;;;11.13;100.00;93374.94;5078954;28;20051;-68
2023/11/05 04:53:46;;;;;;;1.38;1.25;;;;;;;10.83;100.00;93388.50;5077028;28;20103;-67
2023/11/05 04:56:15;;;;;;;1.83;1.48;;;;;;;10.89;100.00;93398.22;5076865;28;20361;-67
2023/11/05 04:58:41;;;;;;;1.25;1.15;;;;;;;10.59;100.00;93424.06;5082214;28;20016;-67
2023/11/05 05:01:06;;;;;;;2.72;1.42;;;;;;;10.44;100.00;93429.47;5082048;28;20030;-67
2023/11/05 05:03:33;;;;;;;1.95;1.38;;;;;;;11.02;100.00;93391.38;5092434;28;20031;-67
2023/11/05 05:05:58;;;;;;;2.75;1.10;;;;;;;11.35;100.00;93366.03;5077841;28;20084;-66
2023/11/05 05:08:24;;;;;;;1.67;1.10;;;;;;;11.15;100.00;93367.66;5078800;28;20024;-66
2023/11/05 05:10:49;;;;;;;1.85;1.08;;;;;;;11.31;100.00;93394.59;5081009;28;20044;-67
2023/11/05 05:13:15;;;;;;;2.67;1.23;;;;;;;11.14;100.00;93373.13;5059556;28;20024;-67
2023/11/05 05:15:40;;;;;;;1.33;1.23;;;;;;;11.03;100.00;93398.25;5078213;28;20514;-67
2023/11/05 05:18:06;;;;;;;2.67;1.15;;;;;;;10.95;100.00;93417.69;5074905;28;20028;-67
2023/11/05 05:20:31;;;;;;;2.05;0.90;;;;;;;11.29;100.00;93381.66;5084919;28;20024;-66
2023/11/05 05:22:57;;;;;;;1.20;1.10;;;;;;;11.39;100.00;93389.16;5084960;28;20501;-66
2023/11/05 05:25:22;;;;;;;3.28;1.30;;;;;;;11.64;100.00;93370.06;5083737;28;20024;-66
2023/11/05 05:27:48;;;;;;;1.38;1.10;;;;;;;11.55;100.00;93387.09;5082573;28;20154;-67
2023/11/05 05:30:16;;;;;;;0.95;0.90;;;;;;;11.56;100.00;93381.63;5077454;28;20374;-67
2023/11/05 05:32:42;;;;;;;3.00;0.93;;;;;;;11.26;100.00;93399.69;5074885;28;20485;-66
2023/11/05 05:35:08;;;;;;;1.20;1.10;;;;;;;11.38;100.00;93408.59;5080335;28;20442;-67
2023/11/05 05:37:33;;;;;;;1.35;1.25;;;;;;;11.29;100.00;93407.16;5089319;28;20446;-66
2023/11/05 05:39:59;;;;;;;6.47;0.90;;;;;;;11.61;100.00;93423.19;5082155;28;20020;-67
2023/11/05 05:42:24;;;;;;;1.00;1.00;;;;;;;11.80;100.00;93397.00;5076505;28;20126;-66
2023/11/05 05:44:49;;;;;;;1.05;0.93;;;;;;;11.64;100.00;93399.06;5093912;28;20023;-66
2023/11/05 05:47:15;;;;;;;3.78;1.13;;;;;;;11.42;100.00;93390.56;5087790;28;20027;-66
2023/11/05 05:49:40;;;;;;;1.15;1.00;;;;;;;11.65;100.00;93413.03;5091452;28;20221;-67
2023/11/05 05:52:06;;;;;;;1.25;1.08;;;;;;;11.87;100.00;93397.81;5078206;28;20035;-66
2023/11/05 05:54:32;;;;;;;3.28;1.40;;;;;;;11.79;100.00;93409.38;5083348;28;20442;-66
2023/11/05 05:56:57;;;;;;;4.15;2.65;;;;;;;11.38;100.00;93413.06;5087377;28;20023;-66
2023/11/05 05:59:22;;;;;;;4.43;2.80;;;;;;;11.34;100.00;93428.44;5077966;28;20036;-66
2023/11/05 06:01:48;;;;;;;4.07;2.70;;;;;;;11.22;100.00;93432.72;5077512;28;20047;-66
2023/11/05 06:04:14;;;;;;;2.30;2.10;;;;;;;11.36;100.00;93444.84;5086783;28;20048;-66
2023/11/05 06:06:39;;;;;;;4.20;3.25;;;;;;;11.17;100.00;93457.00;5081553;28;20022;-67
2023/11/05 06:09:11;;;;;;;1.33;1.23;;;;;;;11.30;100.00;93443.88;5078122;28;20013;-67
2023/11/05 06:11:36;;;;;;;1.50;1.33;;;;;;;11.66;100.00;93454.19;5083060;28;20067;-67
2023/11/05 06:14:02;;;;;;;2.33;1.30;;;;;;;11.92;100.00;93442.00;5088637;28;20025;-66
2023/11/05 06:16:27;;;;;;;1.48;1.38;;;;;;;11.77;100.00;93450.13;5089437;28;20027;-66
2023/11/05 06:18:53;;;;;;;2.55;1.05;;;;;;;11.98;100.00;93457.81;5083959;28;20155;-67
2023/11/05 06:21:18;;;;;;;2.53;1.05;;;;;;;12.16;100.00;93459.03;5099226;28;20027;-66
2023/11/05 06:23:44;;;;;;;1.65;1.23;;;;;;;12.08;100.00;93461.91;5085499;28;20028;-66
2023/11/05 06:26:09;;;;;;;1.60;1.00;;;;;;;11.96;100.00;93474.88;5077132;28;20035;-67
2023/11/05 06:28:34;;;;;;;1.58;0.95;;;;;;;11.82;100.00;93472.22;5090028;28;20031;-66
2023/11/05 06:31:00;;;;;;;3.08;1.30;;;;;;;11.95;100.00;93481.94;5091813;28;20512;-66
2023/11/05 06:33:26;;;;;;;1.30;1.20;;;;;;;11.64;100.00;93486.03;5091948;28;20131;-66
2023/11/05 06:35:51;;;;;;;0.85;0.85;;;;;;;11.86;100.00;93491.91;5084373;28;20143;-66
2023/11/05 06:38:17;;;;;;;2.65;1.52;;;;;;;11.97;100.00;93506.28;5076800;28;20028;-67
2023/11/05 06:40:42;;;;;;;1.30;1.20;;;;;;;12.17;100.00;93493.13;5078611;28;20060;-66
2023/11/05 06:43:08;;;;;;;0.90;0.90;;;;;;;12.03;100.00;93523.16;5079212;28;20059;-66
2023/11/05 06:45:33;;;;;;;2.20;1.00;;;;;;;11.82;100.00;93535.50;5096890;28;20028;-67
2023/11/05 06:47:58;;;;;;;0.98;0.93;;;;;;;11.65;100.00;93514.00;5094055;28;20027;-67
2023/11/05 06:50:24;;;;;;;1.50;1.38;;;;;;;11.89;100.00;93512.56;5076659;28;20034;-67
2023/11/05 06:52:49;;;;;;;4.88;1.40;;;;;;;12.14;100.00;93521.72;5075687;28;20756;-66
2023/11/05 06:55:15;;;;;;;1.80;1.70;;;;;;;12.28;100.00;93509.31;5079403;28;20019;-66
2023/11/05 06:57:40;;;;;;;1.48;1.13;;;;;;;12.18;100.00;93509.75;5076948;28;20031;-66
2023/11/05 07:00:06;;;;;;;0.93;0.93;;;;;;;12.52;100.00;93521.06;5076866;28;20469;-67
2023/11/05 07:02:34;;;;;;;0.80;0.80;;;;;;;12.18;100.00;93528.22;5077570;28;20082;-66
2023/11/05 07:05:04;;;;;;;2.53;1.25;;;;;;;12.24;100.00;93545.84;5083785;28;20028;-66
2023/11/05 07:07:32;;;;;;;2.08;1.20;;;;;;;12.07;100.00;93553.38;5083338;28;20028;-67
2023/11/05 07:09:57;;;;;;;0.95;0.90;;;;;;;12.21;100.00;93554.19;5079962;28;20051;-67
2023/11/05 07:12:23;;;;;;;1.20;1.10;;;;;;;12.10;100.00;93557.44;5083067;28;20492;-66
2023/11/05 07:14:48;;;;;;;0.95;0.95;;;;;;;12.12;100.00;93548.28;5079991;28;20047;-66
2023/11/05 07:17:14;;;;;;;1.65;1.45;;;;;;;12.05;100.00;93550.13;5081559;28;20064;-66
2023/11/05 07:19:40;;;;;;;2.00;1.35;;;;;;;12.30;100.00;93558.25;5092935;28;20027;-67
2023/11/05 07:22:05;;;;;;;1.92;1.10;;;;;;;12.26;100.00;93557.00;5086925;28;20024;-66
2023/11/05 07:24:30;;;;;;;1.98;0.95;;;;;;;12.52;100.00;93581.75;5093682;28;20031;-67
2023/11/05 07:26:57;;;;;;;1.00;1.00;;;;;;;12.25;100.00;93584.41;5076958;28;20033;-66
2023/11/05 07:29:22;;;;;;;1.58;1.10;;;;;;;12.19;100.00;93593.13;5080667;28;20469;-66
2023/11/05 07:31:48;;;;;;;1.50;1.40;;;;;;;11.97;100.00;93579.31;5083396;28;20024;-66
2023/11/05 07:34:13;;;;;;;1.00;1.00;;;;;;;11.94;100.00;93587.66;5076407;28;20029;-66
2023/11/05 07:36:39;;;;;;;1.35;1.00;;;;;;;11.99;100.00;93595.75;5089491;28;20028;-66
2023/11/05 07:39:09;;;;;;;1.45;1.10;;;;;;;11.84;100.00;93611.78;5085776;28;20036;-66
2023/11/05 07:41:35;;;;;;;1.80;1.60;;;;;;;11.66;100.00;93636.88;5080518;28;20075;-67
2023/11/05 07:44:00;;;;;;;1.67;1.00;;;;;;;11.80;100.00;93627.16;5076416;28;20024;-66
2023/11/05 07:46:26;;;;;;;1.80;1.00;;;;;;;12.30;100.00;93626.84;5076813;28;20028;-66
2023/11/05 07:48:52;;;;;;;2.10;2.00;;;;;;;12.12;100.00;93659.06;5083487;28;20103;-66
2023/11/05 07:51:21;;;;;;;1.20;1.10;;;;;;;12.23;100.00;93628.63;5076416;28;20031;-66
2023/11/05 07:53:47;;;;;;;1.40;1.30;;;;;;;12.29;100.00;93648.97;5081547;28;20036;-66
2023/11/05 07:56:12;;;;;;;1.27;1.17;;;;;;;12.41;100.00;93662.34;5090486;28;20035;-66
2023/11/05 07:58:37;;;;;;;0.90;0.90;;;;;;;12.17;100.00;93656.66;5089116;28;20099;-66
2023/11/05 08:01:03;;;;;;;1.23;1.13;;;;;;;12.23;100.00;93665.56;5091888;28;20031;-66
2023/11/05 08:03:31;;;;;;;2.17;0.95;;;;;;;12.23;100.00;93668.22;5082459;28;20063;-66
2023/11/05 08:05:56;;;;;;;1.88;1.50;;;;;;;12.28;100.00;93683.44;5079855;28;20034;-66
2023/11/05 08:08:22;;;;;;;0.90;0.90;;;;;;;12.34;100.00;93697.66;5093934;28;20059;-66
2023/11/05 08:10:47;;;;;;;1.30;1.27;;;;;;;12.35;100.00;93678.19;5092948;28;20063;-66
2023/11/05 08:13:14;;;;;;;3.83;1.20;;;;;;;12.56;100.00;93680.63;5095336;28;20492;-66
2023/11/05 08:15:43;;;;;;;1.23;1.23;;;;;;;12.64;100.00;93698.09;5091553;28;20032;-66
2023/11/05 08:18:09;;;;;;;1.88;1.77;;;;;;;12.69;100.00;93697.44;5082014;28;20029;-67
2023/11/05 08:20:34;;;;;;;2.75;0.80;;;;;;;12.71;100.00;93687.50;5091811;28;20088;-66
2023/11/05 08:23:00;;;;;;;1.85;1.75;;;;;;;12.61;100.00;93698.50;5091840;28;20370;-66
2023/11/05 08:25:26;;;;;;;1.20;1.10;;;;;;;12.74;100.00;93727.50;5093434;28;20404;-66
2023/11/05 08:27:51;;;;;;;1.00;1.00;;;;;;;12.71;100.00;93725.28;5085893;28;20040;-66
2023/11/05 08:30:18;;;;;;;2.85;1.80;;;;;;;12.47;100.00;93739.88;5093319;28;20028;-67
2023/11/05 08:32:44;;;;;;;1.30;1.20;;;;;;;12.31;100.00;93735.81;5081855;28;20177;-66
2023/11/05 08:35:11;;;;;;;1.60;1.50;;;;;;;12.40;100.00;93742.53;5080841;28;20031;-66
2023/11/05 08:37:37;;;;;;;1.38;1.27;;;;;;;12.50;100.00;93744.78;5077930;28;20090;-66
2023/11/05 08:40:07;;;;;;;1.25;1.15;;;;;;;12.56;100.00;93746.59;5085646;28;20028;-67
2023/11/05 08:42:34;;;;;;;2.15;1.45;;;;;;;12.46;100.00;93769.94;5079894;28;20424;-66
2023/11/05 08:44:59;;;;;;;3.42;2.70;;;;;;;12.42;100.00;93779.25;5083520;28;21319;-65
2023/11/05 08:47:24;;;;;;;5.18;3.70;;;;;;;12.34;100.00;93792.66;5078600;28;20241;-67
2023/11/05 08:49:50;;;;;;;1.30;1.20;;;;;;;12.38;100.00;93781.50;5087087;28;20019;-66
2023/11/05 08:52:16;;;;;;;2.65;2.05;;;;;;;12.15;100.00;93805.59;5083545;28;20037;-67
2023/11/05 08:54:41;;;;;;;1.30;1.08;;;;;;;12.26;100.00;93833.22;5086935;28;20439;-66
2023/11/05 08:57:06;;;;;;;1.83;1.60;;;;;;;12.02;100.00;93857.25;5081672;28;20105;-66
2023/11/05 08:59:32;;;;;;;3.03;1.30;;;;;;;11.57;100.00;93851.50;5073334;28;20139;-67
2023/11/05 09:01:58;;;;;;;1.50;1.40;;;;;;;11.68;100.00;93858.06;5074467;28;20048;-68
2023/11/05 09:04:24;;;;;;;1.45;1.42;;;;;;;11.63;100.00;93850.75;5081431;28;20028;-68
2023/11/05 09:06:49;;;;;;;1.00;1.00;;;;;;;11.68;100.00;93848.34;5078420;28;20032;-67
2023/11/05 09:09:15;;;;;;;2.20;1.70;;;;;;;11.94;100.00;93841.59;5072550;28;20050;-67
2023/11/05 09:11:44;;;;;;;1.73;1.50;;;;;;;12.22;100.00;93832.00;5086289;28;20119;-67
2023/11/05 09:14:09;;;;;;;2.60;1.15;;;;;;;11.89;100.00;93852.72;5085228;28;20568;-67
2023/11/05 09:16:35;;;;;;;3.03;2.28;;;;;;;12.24;100.00;93851.06;5086621;28;20020;-68
2023/11/05 09:19:00;;;;;;;2.00;1.00;;;;;;;12.07;100.00;93850.59;5073636;28;20034;-68
2023/11/05 09:21:27;;;;;;;1.02;0.95;;;;;;;11.93;100.00;93868.13;5089766;28;20100;-67
2023/11/05 09:23:52;;;;;;;3.13;2.03;;;;;;;11.72;100.00;93885.69;5077808;28;20028;-68
2023/11/05 09:26:19;;;;;;;1.95;1.10;;;;;;;11.69;100.00;93934.31;5079534;28;20030;-68
2023/11/05 09:28:45;;;;;;;4.57;2.50;;;;;;;11.59;100.00;93924.13;5088791;28;20389;-68
2023/11/05 09:31:11;;;;;;;1.52;1.30;;;;;;;11.70;100.00;93943.03;5082652;28;20035;-68
2023/11/05 09:33:37;;;;;;;2.47;2.28;;;;;;;11.72;100.00;93928.66;5082724;28;20035;-68
2023/11/05 09:36:02;;;;;;;3.38;3.08;;;;;;;11.65;100.00;93948.91;5083034;28;20024;-68
2023/11/05 09:38:28;;;;;;;3.90;3.60;;;;;;;11.53;100.00;93972.31;5079138;28;20027;-68
2023/11/05 09:40:53;;;;;;;3.72;3.42;;;;;;;11.50;100.00;93985.88;5084072;28;20032;-68
2023/11/05 09:43:19;;;;;;;1.95;1.70;;;;;;;11.61;100.00;93995.09;5086073;28;20027;-67
2023/11/05 09:45:49;;;;;;;1.50;1.40;;;;;;;11.14;100.00;94023.63;5082868;28;20559;-68
2023/11/05 09:48:14;;;;;;;0.70;0.70;;;;;;;10.76;100.00;94069.38;5073484;28;20126;-68
2023/11/05 09:50:41;;;;;;;1.85;1.40;;;;;;;10.77;100.00;94083.34;5074872;28;20040;-68
2023/11/05 09:53:08;;;;;;;1.30;1.20;;;;;;;10.31;100.00;94064.06;5090903;28;20028;-68
2023/11/05 09:55:34;;;;;;;2.65;1.73;;;;;;;10.43;100.00;94090.78;5078879;28;20474;-68
2023/11/05 09:58:01;;;;;;;6.90;1.40;;;;;;;10.62;100.00;94097.34;5079019;28;20043;-65
2023/11/05 10:00:32;;;;;;;2.03;1.70;;;;;;;10.63;100.00;94077.91;5080617;28;20047;-65
2023/11/05 10:03:07;;;;;;;1.20;1.20;;;;;;;10.57;100.00;94089.97;5080574;28;20445;-65
2023/11/05 10:05:43;;;;;;;1.10;1.10;;;;;;;10.48;100.00;94083.16;5077565;28;20027;-65
2023/11/05 10:08:10;;;;;;;1.80;1.70;;;;;;;10.57;100.00;94091.78;5076219;28;20039;-65
2023/11/05 10:10:38;;;;;;;4.57;2.60;;;;;;;10.60;100.00;94094.88;5080477;28;20398;-65
2023/11/05 10:13:06;;;;;;;1.95;1.85;;;;;;;10.41;100.00;94098.03;5074206;28;20044;-64
2023/11/05 10:15:39;;;;;;;1.80;1.20;;;;;;;10.23;100.00;94137.81;5074710;28;20028;-65
2023/11/05 10:18:05;;;;;;;1.38;1.08;;;;;;;10.61;100.00;94106.22;5092371;28;20024;-65
2023/11/05 10:20:30;;;;;;;6.95;4.60;;;;;;;10.31;100.00;94098.25;5090444;28;20030;-65
2023/11/05 10:23:00;;;;;;;2.03;1.92;;;;;;;10.36;100.00;94116.16;5103149;28;20028;-64
2023/11/05 10:25:25;;;;;;;6.00;5.50;;;;;;;10.06;100.00;94127.41;5095959;28;20020;-64
2023/11/05 10:27:54;;;;;;;3.35;3.15;;;;;;;9.91;100.00;94124.75;5088849;28;20035;-64
2023/11/05 10:30:21;;;;;;;1.92;1.83;;;;;;;9.81;100.00;94139.91;5079085;28;20020;-64
2023/11/05 10:32:48;;;;;;;1.67;1.58;;;;;;;9.77;100.00;94136.00;5097179;28;20139;-65
2023/11/05 10:35:18;;;;;;;2.55;2.35;;;;;;;9.72;100.00;94142.63;5089705;28;20028;-65
2023/11/05 10:37:46;;;;;;;2.80;2.33;;;;;;;9.67;100.00;94152.84;5097564;28;20032;-64
2023/11/05 10:40:13;;;;;;;3.88;2.92;;;;;;;9.57;100.00;94160.94;5078537;28;20039;-64
2023/11/05 10:42:40;;;;;;;3.47;3.28;;;;;;;9.55;100.00;94148.97;5077023;28;20025;-64
2023/11/05 10:45:11;;;;;;;3.33;2.33;;;;;;;9.54;100.00;94178.84;5079403;28;20021;-64
2023/11/05 10:47:36;;;;;;;3.65;2.05;;;;;;;9.52;100.00;94204.47;5087393;28;20029;-64
2023/11/05 10:50:09;;;;;;;5.40;4.90;;;;;;;9.79;100.00;94218.13;5095919;28;20022;-65
2023/11/05 10:52:40;;;;;;;3.50;1.40;;;;;;;10.31;100.00;94235.88;5079222;28;20111;-64
2023/11/05 10:55:10;;;;;;;1.50;1.40;;;;;;;10.26;100.00;94205.81;5078494;28;20035;-64
2023/11/05 10:57:47;;;;;;;1.30;1.20;;;;;;;10.45;100.00;94220.31;5086622;28;20123;-64
2023/11/05 11:00:25;;;;;;;1.98;1.50;;;;;;;10.40;100.00;94225.28;5093248;28;20035;-64
2023/11/05 11:02:51;;;;;;;2.53;2.30;;;;;;;10.06;100.00;94237.84;5092455;28;20035;-63
2023/11/05 11:05:20;;;;;;;2.83;1.88;;;;;;;9.95;100.00;94248.78;5087231;28;20016;-64
2023/11/05 11:07:46;;;;;;;2.15;2.00;;;;;;;10.17;100.00;94247.16;5079897;28;20033;-64
2023/11/05 11:10:20;;;;;;;1.85;1.75;;;;;;;10.17;100.00;94234.00;5081307;28;20055;-64
2023/11/05 11:12:45;;;;;;;1.77;1.67;;;;;;;10.15;100.00;94236.00;5074338;28;20093;-64
2023/11/05 11:15:35;;;;;;;1.65;1.55;;;;;;;10.39;100.00;94234.16;5086283;28;20028;-66
2023/11/05 11:18:05;;;;;;;1.48;1.38;;;;;;;9.94;100.00;94223.44;5080814;28;20024;-66
2023/11/05 11:20:31;;;;;;;1.25;1.25;;;;;;;10.09;100.00;94226.19;5089709;28;20020;-66